createdAt,value
2022-09-12T00:01:11.841Z,10.17
2022-09-12T00:04:13.277Z,10.20
2022-09-12T00:07:14.595Z,10.15
2022-09-12T00:10:15.974Z,10.16
2022-09-12T00:13:17.351Z,10.19
2022-09-12T00:16:23.072Z,10.15
2022-09-12T00:19:24.459Z,10.10
2022-09-12T00:22:25.779Z,10.10
2022-09-12T00:25:27.449Z,9.97
2022-09-12T00:28:28.804Z,9.93
2022-09-12T00:31:30.248Z,9.92
2022-09-12T00:34:31.615Z,9.97
2022-09-12T00:37:33.205Z,9.94
2022-09-12T00:40:34.553Z,9.90
2022-09-12T00:43:35.867Z,9.90
2022-09-12T00:46:55.938Z,9.88
2022-09-12T00:50:07.785Z,9.92
2022-09-12T00:53:09.147Z,9.88
2022-09-12T00:56:10.501Z,9.92
2022-09-12T00:59:12.875Z,9.82
2022-09-12T01:02:14.587Z,9.79
2022-09-12T01:05:15.978Z,9.77
2022-09-12T01:08:17.313Z,9.81
2022-09-12T01:11:18.675Z,9.84
2022-09-12T01:14:20.112Z,9.76
2022-09-12T01:17:21.603Z,9.70
2022-09-12T01:20:29.226Z,9.71
2022-09-12T01:23:36.583Z,9.72
2022-09-12T01:26:37.990Z,9.70
2022-09-12T01:29:45.432Z,9.66
2022-09-12T01:32:55.614Z,9.62
2022-09-12T01:36:01.146Z,9.58
2022-09-12T01:39:03.733Z,9.71
2022-09-12T01:42:05.039Z,9.57
2022-09-12T01:45:09.390Z,9.52
2022-09-12T01:48:20.297Z,9.50
2022-09-12T01:51:29.846Z,9.48
2022-09-12T01:54:36.669Z,9.46
2022-09-12T01:57:41.169Z,9.53
2022-09-12T02:00:44.337Z,9.44
2022-09-12T02:03:53.184Z,9.39
2022-09-12T02:07:14.729Z,9.39
2022-09-12T02:10:16.852Z,9.33
2022-09-12T02:13:19.195Z,9.32
2022-09-12T02:16:31.864Z,9.33
2022-09-12T02:19:34.339Z,9.40
2022-09-12T02:22:35.926Z,9.36
2022-09-12T02:25:37.999Z,9.38
2022-09-12T02:28:40.150Z,9.27
2022-09-12T02:31:48.353Z,9.26
2022-09-12T02:34:51.595Z,9.26
2022-09-12T02:37:53.132Z,9.24
2022-09-12T02:40:54.527Z,9.22
2022-09-12T02:43:55.862Z,9.24
2022-09-12T02:46:59.081Z,9.21
2022-09-12T02:50:00.429Z,9.20
2022-09-12T02:53:04.882Z,9.22
2022-09-12T02:56:07.488Z,9.23
2022-09-12T02:59:09.170Z,9.21
2022-09-12T03:02:13.630Z,9.20
2022-09-12T03:05:17.059Z,9.26
2022-09-12T03:08:24.475Z,9.24
2022-09-12T03:11:35.301Z,9.21
2022-09-12T03:14:47.458Z,9.21
2022-09-12T03:17:57.920Z,9.17
2022-09-12T03:21:04.118Z,9.21
2022-09-12T03:24:17.400Z,9.15
2022-09-12T03:27:19.968Z,9.18
2022-09-12T03:30:21.312Z,9.13
2022-09-12T03:33:23.053Z,9.12
2022-09-12T03:36:25.331Z,9.08
2022-09-12T03:39:27.900Z,9.04
2022-09-12T03:42:29.223Z,9.07
2022-09-12T03:45:30.579Z,9.06
2022-09-12T03:48:31.952Z,9.06
2022-09-12T03:51:33.262Z,9.09
2022-09-12T03:54:34.584Z,9.16
2022-09-12T03:57:35.915Z,9.09
2022-09-12T04:00:38.568Z,9.05
2022-09-12T04:03:40.369Z,8.97
2022-09-12T04:06:42.919Z,8.89
2022-09-12T04:09:44.224Z,8.85
2022-09-12T04:12:45.588Z,8.90
2022-09-12T04:15:55.743Z,8.94
2022-09-12T04:18:57.104Z,8.86
2022-09-12T04:21:58.470Z,8.86
2022-09-12T04:24:59.785Z,8.90
2022-09-12T04:28:01.142Z,8.89
2022-09-12T04:31:03.959Z,8.87
2022-09-12T04:34:05.562Z,8.83
2022-09-12T04:37:06.925Z,8.81
2022-09-12T04:40:08.669Z,8.80
2022-09-12T04:43:14.219Z,8.74
2022-09-12T04:46:16.672Z,8.82
2022-09-12T04:49:19.338Z,8.85
2022-09-12T04:52:20.919Z,8.78
2022-09-12T04:55:22.315Z,8.76
2022-09-12T04:58:23.654Z,8.74
2022-09-12T05:01:26.359Z,8.72
2022-09-12T05:04:27.695Z,8.72
2022-09-12T05:07:29.733Z,8.73
2022-09-12T05:10:31.117Z,8.70
2022-09-12T05:13:32.435Z,8.73
2022-09-12T05:16:33.769Z,8.75
2022-09-12T05:19:35.172Z,8.78
2022-09-12T05:22:36.481Z,8.82
2022-09-12T05:25:37.779Z,8.86
2022-09-12T05:28:39.154Z,8.87
2022-09-12T05:31:40.825Z,8.90
2022-09-12T05:34:42.133Z,8.90
2022-09-12T05:37:43.455Z,8.90
2022-09-12T05:40:44.754Z,8.95
2022-09-12T05:43:46.199Z,8.94
2022-09-12T05:46:50.765Z,8.95
2022-09-12T05:49:52.484Z,9.02
2022-09-12T05:52:54.976Z,9.06
2022-09-12T05:56:25.608Z,9.10
2022-09-12T05:59:28.403Z,9.18
2022-09-12T06:02:29.743Z,9.26
2022-09-12T06:05:33.179Z,9.37
2022-09-12T06:08:35.072Z,9.45
2022-09-12T06:11:37.321Z,9.52
2022-09-12T06:14:38.921Z,9.61
2022-09-12T06:17:40.286Z,9.72
2022-09-12T06:20:41.595Z,9.82
2022-09-12T06:23:43.001Z,9.91
2022-09-12T06:26:44.367Z,9.96
2022-09-12T06:29:45.979Z,10.04
2022-09-12T06:32:47.342Z,10.04
2022-09-12T06:35:48.648Z,10.09
2022-09-12T06:39:00.803Z,10.13
2022-09-12T06:42:02.154Z,10.24
2022-09-12T06:45:03.575Z,10.38
2022-09-12T06:48:05.702Z,10.49
2022-09-12T06:51:07.657Z,10.68
2022-09-12T06:54:09.193Z,10.77
2022-09-12T06:57:10.555Z,10.83
2022-09-12T07:00:12.338Z,10.98
2022-09-12T07:03:13.836Z,11.07
2022-09-12T07:06:15.799Z,11.18
2022-09-12T07:09:17.186Z,11.18
2022-09-12T07:12:18.509Z,11.27
2022-09-12T07:15:19.833Z,11.38
2022-09-12T07:18:21.509Z,11.46
2022-09-12T07:21:22.945Z,11.59
2022-09-12T07:24:24.294Z,11.74
2022-09-12T07:27:25.761Z,11.84
2022-09-12T07:30:27.114Z,11.94
2022-09-12T07:33:28.563Z,12.13
2022-09-12T07:36:29.897Z,12.31
2022-09-12T07:39:31.259Z,12.45
2022-09-12T07:42:32.607Z,12.61
2022-09-12T07:45:34.016Z,12.74
2022-09-12T07:48:35.427Z,12.88
2022-09-12T07:51:37.349Z,13.02
2022-09-12T07:54:38.781Z,13.19
2022-09-12T07:57:40.371Z,13.38
2022-09-12T08:00:42.370Z,13.57
2022-09-12T08:03:44.213Z,13.77
2022-09-12T08:06:45.577Z,13.96
2022-09-12T08:09:47.402Z,14.15
2022-09-12T08:12:48.755Z,14.42
2022-09-12T08:15:50.127Z,14.80
2022-09-12T08:18:51.712Z,15.02
2022-09-12T08:21:53.099Z,15.37
2022-09-12T08:24:54.446Z,15.56
2022-09-12T08:27:56.079Z,15.81
2022-09-12T08:31:04.427Z,16.20
2022-09-12T08:34:05.775Z,16.73
2022-09-12T08:37:07.089Z,17.24
2022-09-12T08:40:09.577Z,17.89
2022-09-12T08:43:26.663Z,18.07
2022-09-12T08:46:30.967Z,18.21
2022-09-12T08:49:33.823Z,18.45
2022-09-12T08:52:35.125Z,18.70
2022-09-12T08:55:37.268Z,19.05
2022-09-12T08:58:39.957Z,19.10
2022-09-12T09:01:42.598Z,19.38
2022-09-12T09:04:46.727Z,19.70
2022-09-12T09:07:51.196Z,19.74
2022-09-12T09:11:11.428Z,20.08
2022-09-12T09:14:31.582Z,20.65
2022-09-12T09:17:32.865Z,20.88
2022-09-12T09:20:40.101Z,20.98
2022-09-12T09:23:42.696Z,21.12
2022-09-12T09:26:56.493Z,21.19
2022-09-12T09:29:57.864Z,21.73
2022-09-12T09:33:00.066Z,21.98
2022-09-12T09:36:12.154Z,23.06
2022-09-12T09:39:32.398Z,23.94
2022-09-12T09:42:33.882Z,24.09
2022-09-12T09:45:35.236Z,24.40
2022-09-12T09:48:37.139Z,24.50
2022-09-12T09:51:39.151Z,24.32
2022-09-12T09:54:50.261Z,23.31
2022-09-12T09:57:53.119Z,22.23
2022-09-12T10:00:58.045Z,22.29
2022-09-12T10:03:59.838Z,23.08
2022-09-12T10:07:01.614Z,23.48
2022-09-12T10:10:18.812Z,23.57
2022-09-12T10:13:56.918Z,23.82
2022-09-12T10:16:58.337Z,24.20
2022-09-12T10:20:19.913Z,24.30
2022-09-12T10:23:23.932Z,24.14
2022-09-12T10:26:25.250Z,24.26
2022-09-12T10:29:31.379Z,24.38
2022-09-12T10:32:37.627Z,24.27
2022-09-12T10:35:46.119Z,24.49
2022-09-12T10:38:54.643Z,24.61
2022-09-12T10:41:55.984Z,24.17
2022-09-12T10:44:57.278Z,24.60
2022-09-12T10:48:02.109Z,23.98
2022-09-12T10:51:05.597Z,24.30
2022-09-12T10:54:08.549Z,24.60
2022-09-12T10:57:09.860Z,24.09
2022-09-12T11:00:20.055Z,24.15
2022-09-12T11:03:30.652Z,24.61
2022-09-12T11:06:35.310Z,24.97
2022-09-12T11:09:54.793Z,25.16
2022-09-12T11:13:22.710Z,25.13
2022-09-12T11:16:24.108Z,25.51
2022-09-12T11:19:34.521Z,25.50
2022-09-12T11:22:54.785Z,25.84
2022-09-12T11:26:11.307Z,25.04
2022-09-12T11:29:12.629Z,25.02
2022-09-12T11:32:22.663Z,25.03
2022-09-12T11:35:30.946Z,25.05
2022-09-12T11:38:32.246Z,24.88
2022-09-12T11:41:34.986Z,25.10
2022-09-12T11:44:46.268Z,24.99
2022-09-12T11:47:52.373Z,25.38
2022-09-12T11:50:53.711Z,25.98
2022-09-12T11:54:00.296Z,25.95
2022-09-12T11:57:24.918Z,25.11
2022-09-12T12:00:32.897Z,25.47
2022-09-12T12:03:39.567Z,25.25
2022-09-12T12:06:52.291Z,25.38
2022-09-12T12:09:54.710Z,25.69
2022-09-12T12:12:57.034Z,25.73
2022-09-12T12:15:59.501Z,25.42
2022-09-12T12:19:01.302Z,25.68
2022-09-12T12:22:16.575Z,25.47
2022-09-12T12:25:21.403Z,26.03
2022-09-12T12:28:42.090Z,25.80
2022-09-12T12:31:59.118Z,25.83
2022-09-12T12:35:23.597Z,26.11
2022-09-12T12:38:31.018Z,26.03
2022-09-12T12:41:35.352Z,26.03
2022-09-12T12:44:47.157Z,26.16
2022-09-12T12:47:52.184Z,26.72
2022-09-12T12:50:53.529Z,26.28
2022-09-12T12:53:54.847Z,26.23
2022-09-12T12:57:22.618Z,26.62
2022-09-12T13:00:23.915Z,25.83
2022-09-12T13:03:27.870Z,26.11
2022-09-12T13:06:33.817Z,25.89
2022-09-12T13:09:45.378Z,26.07
2022-09-12T13:12:47.169Z,26.12
2022-09-12T13:15:49.353Z,26.62
2022-09-12T13:18:50.712Z,26.80
2022-09-12T13:21:55.570Z,26.27
2022-09-12T13:24:56.870Z,26.15
2022-09-12T13:28:15.938Z,25.61
2022-09-12T13:31:20.063Z,25.55
2022-09-12T13:34:24.936Z,26.14
2022-09-12T13:37:26.225Z,26.96
2022-09-12T13:40:29.015Z,26.91
2022-09-12T13:43:36.122Z,26.99
2022-09-12T13:46:37.627Z,27.06
2022-09-12T13:49:39.423Z,26.82
2022-09-12T13:52:40.776Z,26.77
2022-09-12T13:55:49.876Z,27.07
2022-09-12T13:59:01.125Z,26.97
2022-09-12T14:02:02.541Z,27.51
2022-09-12T14:05:11.625Z,27.19
2022-09-12T14:08:14.417Z,27.33
2022-09-12T14:11:21.210Z,27.01
2022-09-12T14:14:32.854Z,27.18
2022-09-12T14:17:35.597Z,27.43
2022-09-12T14:20:37.753Z,27.32
2022-09-12T14:23:41.114Z,27.40
2022-09-12T14:26:42.462Z,27.35
2022-09-12T14:29:44.061Z,26.99
2022-09-12T14:33:01.784Z,27.10
2022-09-12T14:36:10.703Z,26.00
2022-09-12T14:39:31.543Z,27.02
2022-09-12T14:42:32.923Z,26.53
2022-09-12T14:45:34.268Z,26.01
2022-09-12T14:48:36.414Z,25.73
2022-09-12T14:51:39.036Z,25.15
2022-09-12T14:54:42.452Z,24.79
2022-09-12T14:57:45.175Z,24.44
2022-09-12T15:00:52.713Z,24.21
2022-09-12T15:03:54.769Z,24.23
2022-09-12T15:06:56.343Z,24.07
2022-09-12T15:09:58.127Z,24.06
2022-09-12T15:13:05.628Z,23.96
2022-09-12T15:16:07.876Z,23.88
2022-09-12T15:19:09.719Z,23.79
2022-09-12T15:22:11.895Z,23.67
2022-09-12T15:25:13.332Z,23.67
2022-09-12T15:28:21.334Z,23.59
2022-09-12T15:31:25.034Z,23.52
2022-09-12T15:34:26.480Z,23.57
2022-09-12T15:37:27.973Z,23.61
2022-09-12T15:40:29.271Z,23.57
2022-09-12T15:43:30.615Z,23.56
2022-09-12T15:46:32.153Z,23.53
2022-09-12T15:49:33.552Z,23.45
2022-09-12T15:52:34.922Z,23.52
2022-09-12T15:55:37.323Z,23.61
2022-09-12T15:58:49.755Z,23.68
2022-09-12T16:01:59.040Z,23.50
2022-09-12T16:05:00.391Z,23.23
2022-09-12T16:08:01.784Z,23.25
2022-09-12T16:11:04.422Z,23.17
2022-09-12T16:14:05.991Z,22.88
2022-09-12T16:17:07.820Z,22.35
2022-09-12T16:20:09.608Z,22.28
2022-09-12T16:23:11.779Z,21.96
2022-09-12T16:26:13.122Z,21.73
2022-09-12T16:29:14.716Z,21.83
2022-09-12T16:32:16.296Z,21.64
2022-09-12T16:35:17.826Z,21.38
2022-09-12T16:38:19.188Z,21.10
2022-09-12T16:41:21.150Z,20.78
2022-09-12T16:44:22.484Z,20.55
2022-09-12T16:47:23.836Z,20.32
2022-09-12T16:50:25.178Z,20.21
2022-09-12T16:53:26.530Z,20.23
2022-09-12T16:56:27.946Z,20.14
2022-09-12T16:59:29.258Z,20.21
2022-09-12T17:02:30.644Z,20.05
2022-09-12T17:05:31.984Z,19.95
2022-09-12T17:08:33.678Z,19.71
2022-09-12T17:11:38.692Z,19.43
2022-09-12T17:14:40.011Z,19.35
2022-09-12T17:17:41.378Z,19.25
2022-09-12T17:20:42.688Z,19.09
2022-09-12T17:23:44.004Z,18.88
2022-09-12T17:26:45.728Z,18.72
2022-09-12T17:29:47.022Z,18.61
2022-09-12T17:32:48.400Z,18.37
2022-09-12T17:35:49.753Z,18.30
2022-09-12T17:38:51.771Z,18.16
2022-09-12T17:41:54.609Z,18.05
2022-09-12T17:44:58.278Z,17.87
2022-09-12T17:47:59.635Z,17.79
2022-09-12T17:51:10.447Z,17.71
2022-09-12T17:54:12.898Z,17.61
2022-09-12T17:57:14.270Z,17.37
2022-09-12T18:00:15.645Z,17.35
2022-09-12T18:03:18.470Z,17.20
2022-09-12T18:06:19.816Z,17.01
2022-09-12T18:09:21.969Z,16.94
2022-09-12T18:12:23.287Z,16.85
2022-09-12T18:15:25.230Z,16.82
2022-09-12T18:18:26.554Z,16.75
2022-09-12T18:21:28.679Z,16.64
2022-09-12T18:24:29.992Z,16.55
2022-09-12T18:27:31.359Z,16.42
2022-09-12T18:30:32.678Z,16.35
2022-09-12T18:33:33.985Z,16.26
2022-09-12T18:36:35.329Z,16.20
2022-09-12T18:39:37.087Z,16.10
2022-09-12T18:42:38.505Z,16.15
2022-09-12T18:45:39.872Z,16.15
2022-09-12T18:48:41.282Z,16.03
2022-09-12T18:51:42.625Z,15.71
2022-09-12T18:54:43.944Z,15.62
2022-09-12T18:57:45.408Z,15.47
2022-09-12T19:00:48.351Z,15.46
2022-09-12T19:03:49.774Z,15.55
2022-09-12T19:06:51.104Z,15.40
2022-09-12T19:09:52.474Z,15.20
2022-09-12T19:12:53.810Z,15.10
2022-09-12T19:15:55.180Z,15.05
2022-09-12T19:18:56.588Z,14.99
2022-09-12T19:21:57.907Z,14.99
2022-09-12T19:24:59.287Z,14.98
2022-09-12T19:28:00.634Z,15.02
2022-09-12T19:31:06.169Z,14.81
2022-09-12T19:34:07.795Z,14.69
2022-09-12T19:37:09.156Z,14.58
2022-09-12T19:40:10.497Z,14.47
2022-09-12T19:43:11.969Z,14.49
2022-09-12T19:46:22.698Z,14.51
2022-09-12T19:49:24.754Z,14.48
2022-09-12T19:52:26.083Z,14.51
2022-09-12T19:55:27.434Z,14.50
2022-09-12T19:58:29.213Z,14.40
2022-09-12T20:01:30.716Z,14.20
2022-09-12T20:04:32.198Z,14.21
2022-09-12T20:07:33.511Z,14.24
2022-09-12T20:10:34.801Z,14.02
2022-09-12T20:13:36.187Z,13.85
2022-09-12T20:16:37.595Z,13.97
2022-09-12T20:19:38.968Z,13.86
2022-09-12T20:22:40.426Z,13.72
2022-09-12T20:25:42.049Z,13.66
2022-09-12T20:28:43.439Z,13.61
2022-09-12T20:31:44.819Z,13.64
2022-09-12T20:34:46.189Z,13.64
2022-09-12T20:37:47.515Z,13.55
2022-09-12T20:40:48.916Z,13.56
2022-09-12T20:43:51.174Z,13.62
2022-09-12T20:46:52.663Z,13.61
2022-09-12T20:49:54.063Z,13.46
2022-09-12T20:52:55.443Z,13.29
2022-09-12T20:55:56.812Z,13.21
2022-09-12T20:58:58.286Z,13.16
2022-09-12T21:01:59.799Z,13.07
2022-09-12T21:05:01.367Z,13.00
2022-09-12T21:08:02.689Z,13.01
2022-09-12T21:11:04.360Z,13.07
2022-09-12T21:14:05.713Z,13.07
2022-09-12T21:17:07.233Z,12.81
2022-09-12T21:20:11.416Z,12.72
2022-09-12T21:23:13.046Z,12.70
2022-09-12T21:26:14.394Z,12.70
2022-09-12T21:29:16.058Z,12.73
2022-09-12T21:32:17.701Z,12.76
2022-09-12T21:35:18.993Z,12.61
2022-09-12T21:38:20.345Z,12.43
2022-09-12T21:41:21.715Z,12.51
2022-09-12T21:44:23.089Z,12.50
2022-09-12T21:47:24.560Z,12.40
2022-09-12T21:50:26.092Z,12.37
2022-09-12T21:53:27.488Z,12.43
2022-09-12T21:56:28.832Z,12.48
2022-09-12T21:59:30.170Z,12.36
2022-09-12T22:02:31.578Z,12.41
2022-09-12T22:05:33.575Z,12.30
2022-09-12T22:08:35.127Z,12.09
2022-09-12T22:11:36.455Z,12.03
2022-09-12T22:14:38.782Z,11.93
2022-09-12T22:17:40.358Z,11.90
2022-09-12T22:20:41.706Z,11.96
2022-09-12T22:24:01.698Z,11.99
2022-09-12T22:27:03.953Z,11.97
2022-09-12T22:30:06.036Z,11.88
2022-09-12T22:33:07.351Z,11.86
2022-09-12T22:36:09.715Z,11.93
2022-09-12T22:39:11.150Z,12.00
2022-09-12T22:42:12.491Z,11.97
2022-09-12T22:45:14.005Z,11.86
2022-09-12T22:48:16.861Z,11.79
2022-09-12T22:51:18.860Z,11.75
2022-09-12T22:54:20.169Z,11.77
2022-09-12T22:57:21.540Z,11.84
2022-09-12T23:00:23.585Z,11.83
2022-09-12T23:03:24.961Z,11.72
2022-09-12T23:06:26.493Z,11.63
2022-09-12T23:09:30.962Z,11.52
2022-09-12T23:12:34.633Z,11.53
2022-09-12T23:15:35.953Z,11.55
2022-09-12T23:18:37.339Z,11.57
2022-09-12T23:21:38.633Z,11.48
2022-09-12T23:24:39.958Z,11.41
2022-09-12T23:27:42.813Z,11.37
2022-09-12T23:30:44.124Z,11.31
2022-09-12T23:33:45.509Z,11.41
2022-09-12T23:36:46.868Z,11.43
2022-09-12T23:39:49.615Z,11.35
2022-09-12T23:42:51.039Z,11.34
2022-09-12T23:45:52.415Z,11.33
2022-09-12T23:48:53.784Z,11.34
2022-09-12T23:51:55.240Z,11.28
2022-09-12T23:54:56.700Z,11.24
2022-09-12T23:57:58.023Z,11.31
